aviador You're here:

CYWA Decoded Metar

PETAWAWA in ON, CANADA
Report Time2017-07-21 04:00:00
UTC Time2017-07-21 04:32:09
Flight Rules vfr VFR
WindCalm
Visibility9999 m
Phenomena:N/A
Clouds:N/A
Expected CloudBase > 2,000 ft AGL from Temp-Dew spread
CeilingNone
Temp20°C (ISA +6)
Dew Point15°C (73% RH)
QNH1010 hPa
Density Alt1,440 ft
Elevation427 ft
Report Wrong Elevation
Raw Report
CYWA 210400Z AUTO 00000KT 9SM CLR 20/15 A2982 RMK SLP098=

Extra information for CYWA:More info

Metar Taf Metar & Taf Last 4 Metars F.Rules Stats Wind Profile Meteogram Temp Stats Airport Information Weather charts Add Link Nearby VenuesMetar ALERT Operation Metar Decoded Social comments